Time;durP1;ratioP1;P1;durP2;ratioP2;P2;SDS_P1;SDS_P2;PMS_P1;PMS_P2;Temp;Humidity;BMP_temperature;BMP_pressure;BME280_temperature;BME280_humidity;BME280_pressure;Samples;Min_cycle;Max_cycle;Signal;HPM_P1;HPM_P2
2022/07/17 00:01:51;;;;;;;4.38;0.60;;;;;;;;;;10416051;28;20211;-72
2022/07/17 00:06:52;;;;;;;0.90;0.88;;;;;;;;;;10415005;28;20772;-74
2022/07/17 00:11:53;;;;;;;3.60;0.57;;;;;;;;;;10416271;28;20215;-72
2022/07/17 00:16:54;;;;;;;4.72;0.82;;;;;;;;;;10413034;28;20222;-72
2022/07/17 00:21:55;;;;;;;3.00;0.80;;;;;;;;;;10419635;28;20191;-74
2022/07/17 00:26:56;;;;;;;2.65;0.70;;;;;;;;;;10416183;28;20282;-73
2022/07/17 00:31:57;;;;;;;7.28;0.70;;;;;;;;;;10402605;28;20697;-72
2022/07/17 00:36:58;;;;;;;2.78;0.60;;;;;;;;;;10421652;28;20245;-73
2022/07/17 00:41:59;;;;;;;1.70;0.75;;;;;;;;;;10421000;28;20197;-73
2022/07/17 00:47:00;;;;;;;1.80;0.50;;;;;;;;;;10402568;28;20191;-72
2022/07/17 00:52:01;;;;;;;0.90;0.57;;;;;;;;;;10425150;28;20696;-72
2022/07/17 00:57:04;;;;;;;4.85;0.77;;;;;;;;;;10394805;28;20301;-73
2022/07/17 01:02:09;;;;;;;1.50;0.65;;;;;;;;;;10413479;28;20255;-73
2022/07/17 01:07:10;;;;;;;3.00;0.70;;;;;;;;;;10417368;28;20251;-73
2022/07/17 01:12:11;;;;;;;2.42;0.80;;;;;;;;;;10382063;28;21016;-73
2022/07/17 01:17:12;;;;;;;1.85;0.80;;;;;;;;;;10384019;28;20593;-72
2022/07/17 01:22:14;;;;;;;3.35;0.95;;;;;;;;;;10386106;28;20199;-73
2022/07/17 01:27:15;;;;;;;1.20;0.73;;;;;;;;;;10386084;28;20199;-73
2022/07/17 01:32:16;;;;;;;1.83;0.60;;;;;;;;;;10386850;28;20285;-72
2022/07/17 01:37:18;;;;;;;2.58;0.80;;;;;;;;;;10383459;28;20235;-73
2022/07/17 01:42:19;;;;;;;3.25;0.93;;;;;;;;;;10392597;28;20228;-73
2022/07/17 01:47:21;;;;;;;0.73;0.70;;;;;;;;;;10389152;28;20218;-73
2022/07/17 01:52:23;;;;;;;6.65;1.05;;;;;;;;;;10382218;28;20199;-73
2022/07/17 01:57:24;;;;;;;6.85;0.98;;;;;;;;;;10385011;28;20218;-73
2022/07/17 02:02:25;;;;;;;1.70;0.80;;;;;;;;;;10375797;28;20258;-73
2022/07/17 02:07:26;;;;;;;4.03;0.63;;;;;;;;;;10390533;28;20223;-73
2022/07/17 02:12:28;;;;;;;3.35;0.93;;;;;;;;;;10430634;28;20563;-74
2022/07/17 02:17:29;;;;;;;2.22;0.60;;;;;;;;;;10425424;28;20218;-73
2022/07/17 02:22:30;;;;;;;2.80;0.90;;;;;;;;;;10425533;28;20215;-73
2022/07/17 02:27:31;;;;;;;7.00;0.70;;;;;;;;;;10425771;28;20194;-74
2022/07/17 02:32:32;;;;;;;4.07;0.70;;;;;;;;;;10419033;28;20582;-74
2022/07/17 02:37:33;;;;;;;1.33;0.73;;;;;;;;;;10424531;28;20694;-74
2022/07/17 02:42:34;;;;;;;3.35;0.80;;;;;;;;;;10421613;28;20662;-74
2022/07/17 02:47:36;;;;;;;3.05;1.00;;;;;;;;;;10428433;28;20230;-74
2022/07/17 02:52:38;;;;;;;3.95;0.80;;;;;;;;;;10420654;28;20204;-74
2022/07/17 02:57:39;;;;;;;2.75;0.75;;;;;;;;;;10424344;28;20247;-74
2022/07/17 03:02:40;;;;;;;4.90;1.15;;;;;;;;;;10420720;28;20427;-74
2022/07/17 03:07:43;;;;;;;3.92;0.88;;;;;;;;;;10417989;28;20723;-74
2022/07/17 03:12:45;;;;;;;4.15;1.25;;;;;;;;;;10383448;28;20215;-74
2022/07/17 03:17:46;;;;;;;1.58;1.02;;;;;;;;;;10351188;28;20219;-74
2022/07/17 03:22:47;;;;;;;3.30;1.02;;;;;;;;;;10383914;28;20527;-74
2022/07/17 03:27:48;;;;;;;4.82;0.95;;;;;;;;;;10385316;28;20695;-74
2022/07/17 03:32:49;;;;;;;2.40;1.05;;;;;;;;;;10375108;28;20223;-74
2022/07/17 03:37:50;;;;;;;5.80;1.33;;;;;;;;;;10385402;28;20215;-74
2022/07/17 03:42:51;;;;;;;2.30;1.20;;;;;;;;;;10359729;28;20202;-74
2022/07/17 03:47:52;;;;;;;3.75;1.23;;;;;;;;;;10379607;28;20222;-74
2022/07/17 03:52:53;;;;;;;3.95;1.10;;;;;;;;;;10377175;28;20763;-74
2022/07/17 03:57:54;;;;;;;3.50;0.90;;;;;;;;;;10366614;28;20235;-74
2022/07/17 04:02:55;;;;;;;6.93;1.35;;;;;;;;;;10372775;28;20228;-74
2022/07/17 04:07:56;;;;;;;4.32;1.13;;;;;;;;;;10378143;28;20215;-74
2022/07/17 04:12:57;;;;;;;5.30;1.08;;;;;;;;;;10416257;28;20674;-74
2022/07/17 04:17:58;;;;;;;6.00;1.42;;;;;;;;;;10421063;28;20218;-74
2022/07/17 04:22:59;;;;;;;2.30;1.08;;;;;;;;;;10423670;28;20249;-75
2022/07/17 04:28:00;;;;;;;1.83;1.20;;;;;;;;;;10417697;28;20340;-74
2022/07/17 04:33:01;;;;;;;6.43;1.10;;;;;;;;;;10422364;28;20222;-74
2022/07/17 04:38:04;;;;;;;4.43;1.00;;;;;;;;;;10416207;28;20215;-74
2022/07/17 04:43:06;;;;;;;7.35;1.23;;;;;;;;;;10417611;28;20203;-74
2022/07/17 04:48:07;;;;;;;5.38;1.45;;;;;;;;;;10428723;28;20472;-74
2022/07/17 04:53:08;;;;;;;1.83;0.90;;;;;;;;;;10425024;28;20202;-74
2022/07/17 04:58:09;;;;;;;7.65;1.60;;;;;;;;;;10413542;28;20579;-73
2022/07/17 05:03:10;;;;;;;1.73;0.98;;;;;;;;;;10418793;28;20306;-74
2022/07/17 05:08:11;;;;;;;4.05;1.10;;;;;;;;;;10423204;28;20231;-74
2022/07/17 05:13:12;;;;;;;4.45;0.98;;;;;;;;;;10422035;28;20286;-74
2022/07/17 05:18:14;;;;;;;5.47;1.15;;;;;;;;;;10427653;28;20258;-74
2022/07/17 05:23:15;;;;;;;3.70;0.93;;;;;;;;;;10410381;28;20265;-74
2022/07/17 05:28:16;;;;;;;5.00;1.00;;;;;;;;;;10429648;28;20264;-74
2022/07/17 05:33:17;;;;;;;4.30;1.00;;;;;;;;;;10434609;28;20366;-74
2022/07/17 05:38:18;;;;;;;0.90;0.70;;;;;;;;;;10416853;28;21020;-74
2022/07/17 05:43:19;;;;;;;5.05;1.08;;;;;;;;;;10435362;28;20195;-74
2022/07/17 05:48:20;;;;;;;2.53;0.93;;;;;;;;;;10429680;28;20296;-75
2022/07/17 05:53:21;;;;;;;2.65;1.00;;;;;;;;;;10409698;28;20632;-74
2022/07/17 05:58:22;;;;;;;3.53;1.08;;;;;;;;;;10427416;28;20227;-74
2022/07/17 06:03:23;;;;;;;8.70;1.05;;;;;;;;;;10421354;28;20207;-75
2022/07/17 06:08:24;;;;;;;7.28;0.90;;;;;;;;;;10423877;28;20262;-75
2022/07/17 06:13:26;;;;;;;4.00;1.35;;;;;;;;;;10424451;28;20199;-73
2022/07/17 06:18:27;;;;;;;7.25;1.48;;;;;;;;;;10421551;28;20286;-74
2022/07/17 06:23:28;;;;;;;2.88;0.80;;;;;;;;;;10422135;28;20671;-74
2022/07/17 06:28:29;;;;;;;5.57;0.95;;;;;;;;;;10424877;28;20191;-74
2022/07/17 06:33:30;;;;;;;4.97;0.82;;;;;;;;;;10426106;28;20261;-74
2022/07/17 06:38:33;;;;;;;4.85;1.00;;;;;;;;;;10424705;28;20219;-75
2022/07/17 06:43:34;;;;;;;3.42;0.77;;;;;;;;;;10423759;28;20203;-75
2022/07/17 06:48:35;;;;;;;7.05;1.17;;;;;;;;;;10422060;28;20218;-74
2022/07/17 06:53:36;;;;;;;7.25;1.00;;;;;;;;;;10416611;28;20187;-75
2022/07/17 06:58:37;;;;;;;3.25;0.82;;;;;;;;;;10426817;28;20211;-74
2022/07/17 07:03:38;;;;;;;2.03;0.73;;;;;;;;;;10422834;28;20730;-75
2022/07/17 07:08:39;;;;;;;3.15;0.82;;;;;;;;;;10419754;28;20262;-72
2022/07/17 07:13:40;;;;;;;3.05;0.70;;;;;;;;;;10420381;28;20542;-74
2022/07/17 07:18:41;;;;;;;3.35;0.93;;;;;;;;;;10423167;28;20655;-74
2022/07/17 07:23:43;;;;;;;6.43;1.05;;;;;;;;;;10402854;28;20273;-75
2022/07/17 07:28:44;;;;;;;2.38;0.88;;;;;;;;;;10413304;28;20195;-75
2022/07/17 07:34:03;;;;;;;2.35;1.10;;;;;;;;;;10507941;27;20541;-73
2022/07/17 07:39:04;;;;;;;2.13;1.10;;;;;;;;;;10474895;28;20189;-73
2022/07/17 07:44:05;;;;;;;1.80;0.90;;;;;;;;;;10475710;28;20179;-72
2022/07/17 07:49:06;;;;;;;7.65;0.80;;;;;;;;;;10475357;28;20195;-74
2022/07/17 07:54:07;;;;;;;5.35;0.70;;;;;;;;;;10476580;28;20671;-73
2022/07/17 07:59:08;;;;;;;4.43;1.17;;;;;;;;;;10464998;28;20181;-72
2022/07/17 08:04:09;;;;;;;2.33;0.70;;;;;;;;;;10477042;28;20244;-74
2022/07/17 08:09:10;;;;;;;4.60;0.82;;;;;;;;;;10472765;28;20269;-72
2022/07/17 08:14:11;;;;;;;7.30;0.95;;;;;;;;;;10472961;28;20175;-72
2022/07/17 08:19:12;;;;;;;4.93;0.80;;;;;;;;;;10471153;28;20213;-72
2022/07/17 08:24:14;;;;;;;4.45;0.88;;;;;;;;;;10473195;28;20171;-74
2022/07/17 08:29:15;;;;;;;3.55;0.55;;;;;;;;;;10473565;28;20720;-73
2022/07/17 08:34:16;;;;;;;3.88;0.80;;;;;;;;;;10471499;28;20207;-74
2022/07/17 08:39:17;;;;;;;3.30;0.90;;;;;;;;;;10474053;28;20202;-73
2022/07/17 08:44:18;;;;;;;5.22;0.75;;;;;;;;;;10452707;28;20183;-74
2022/07/17 08:49:22;;;;;;;1.27;0.70;;;;;;;;;;10447547;28;20203;-72
2022/07/17 08:54:23;;;;;;;5.55;0.80;;;;;;;;;;10444728;28;20730;-72
2022/07/17 08:59:24;;;;;;;3.40;0.90;;;;;;;;;;10460697;28;20193;-72
2022/07/17 09:04:25;;;;;;;6.20;1.40;;;;;;;;;;10448236;28;20272;-72
2022/07/17 09:09:26;;;;;;;3.28;0.80;;;;;;;;;;10449511;28;20622;-73
2022/07/17 09:14:39;;;;;;;3.72;0.75;;;;;;;;;;10444641;28;20187;-74
2022/07/17 09:19:41;;;;;;;4.85;0.68;;;;;;;;;;10442379;28;20280;-74
2022/07/17 09:24:42;;;;;;;1.45;0.90;;;;;;;;;;10444353;28;20240;-72
2022/07/17 09:29:51;;;;;;;5.93;0.90;;;;;;;;;;10445554;28;20226;-74
2022/07/17 09:34:54;;;;;;;5.25;0.68;;;;;;;;;;10442241;28;20211;-72
2022/07/17 09:39:55;;;;;;;5.55;0.77;;;;;;;;;;10449715;28;20333;-74
2022/07/17 09:45:00;;;;;;;2.30;0.82;;;;;;;;;;10444855;28;20193;-73
2022/07/17 09:50:03;;;;;;;3.38;0.60;;;;;;;;;;10443975;28;20742;-73
2022/07/17 09:55:05;;;;;;;2.30;0.80;;;;;;;;;;10443957;28;20270;-73
2022/07/17 10:00:11;;;;;;;4.03;0.50;;;;;;;;;;10443649;28;20265;-73
2022/07/17 10:05:16;;;;;;;4.57;0.65;;;;;;;;;;10432058;28;20221;-74
2022/07/17 10:10:18;;;;;;;2.78;0.50;;;;;;;;;;10455232;28;20219;-74
2022/07/17 10:15:24;;;;;;;2.92;0.90;;;;;;;;;;10441830;28;20183;-74
2022/07/17 10:20:26;;;;;;;3.47;0.57;;;;;;;;;;10440132;28;20211;-73
2022/07/17 10:25:27;;;;;;;3.13;1.00;;;;;;;;;;10442842;28;20191;-73
2022/07/17 10:30:31;;;;;;;2.80;0.55;;;;;;;;;;10440434;28;20230;-73
2022/07/17 10:35:43;;;;;;;3.33;0.40;;;;;;;;;;10443063;28;20283;-73
2022/07/17 10:40:44;;;;;;;1.05;0.47;;;;;;;;;;10442839;28;20182;-71
2022/07/17 10:45:46;;;;;;;1.13;0.50;;;;;;;;;;10441268;28;20253;-73
2022/07/17 10:50:49;;;;;;;4.22;0.60;;;;;;;;;;10460572;28;20220;-72
2022/07/17 10:55:57;;;;;;;1.73;0.60;;;;;;;;;;10443239;28;20289;-72
2022/07/17 11:01:01;;;;;;;1.38;0.50;;;;;;;;;;10437946;28;20306;-72
2022/07/17 11:06:15;;;;;;;3.90;0.65;;;;;;;;;;10441782;28;20182;-72
2022/07/17 11:11:17;;;;;;;2.97;0.55;;;;;;;;;;10429136;28;20571;-72
2022/07/17 11:16:28;;;;;;;3.20;0.68;;;;;;;;;;10440616;28;20175;-71
2022/07/17 11:21:30;;;;;;;2.35;0.80;;;;;;;;;;10439102;28;20205;-72
2022/07/17 11:26:31;;;;;;;1.58;0.70;;;;;;;;;;10450260;28;20214;-73
2022/07/17 11:31:32;;;;;;;0.52;0.50;;;;;;;;;;10438317;28;20257;-72
2022/07/17 11:36:35;;;;;;;2.67;0.70;;;;;;;;;;10440263;28;20243;-72
2022/07/17 11:41:54;;;;;;;1.40;0.65;;;;;;;;;;10438266;28;20211;-72
2022/07/17 11:46:55;;;;;;;1.65;0.57;;;;;;;;;;10441838;28;20179;-72
2022/07/17 11:51:58;;;;;;;2.45;0.50;;;;;;;;;;10446626;28;20206;-73
2022/07/17 11:57:01;;;;;;;1.40;0.57;;;;;;;;;;10451087;28;20665;-72
2022/07/17 12:02:09;;;;;;;5.28;0.63;;;;;;;;;;10444083;28;20263;-71
2022/07/17 12:07:10;;;;;;;4.18;0.52;;;;;;;;;;10433784;28;20189;-73
2022/07/17 12:12:21;;;;;;;1.23;0.68;;;;;;;;;;10445829;28;20732;-75
2022/07/17 12:17:23;;;;;;;1.02;0.50;;;;;;;;;;10445359;28;20207;-72
2022/07/17 12:22:24;;;;;;;2.53;0.60;;;;;;;;;;10450188;28;20209;-73
2022/07/17 12:27:25;;;;;;;1.77;0.47;;;;;;;;;;10449345;28;20544;-73
2022/07/17 12:32:26;;;;;;;1.88;0.52;;;;;;;;;;10446854;28;20236;-72
2022/07/17 12:37:28;;;;;;;2.15;0.55;;;;;;;;;;10446349;28;20214;-73
2022/07/17 12:42:35;;;;;;;2.45;0.60;;;;;;;;;;10433275;28;20175;-74
2022/07/17 12:47:36;;;;;;;3.65;0.60;;;;;;;;;;10447441;28;20206;-74
2022/07/17 12:52:37;;;;;;;2.08;0.57;;;;;;;;;;10448453;28;20218;-74
2022/07/17 12:57:38;;;;;;;1.58;0.60;;;;;;;;;;10448114;28;20239;-73
2022/07/17 13:02:40;;;;;;;1.85;0.40;;;;;;;;;;10448870;28;20214;-73
2022/07/17 13:07:44;;;;;;;3.13;0.60;;;;;;;;;;10455708;28;20661;-72
2022/07/17 13:12:45;;;;;;;1.15;0.45;;;;;;;;;;10445144;28;20541;-72
2022/07/17 13:17:46;;;;;;;2.85;0.60;;;;;;;;;;10444840;28;20203;-71
2022/07/17 13:22:47;;;;;;;1.50;0.40;;;;;;;;;;10443885;28;20183;-73
2022/07/17 13:27:48;;;;;;;3.22;0.30;;;;;;;;;;10445953;28;21138;-73
2022/07/17 13:32:49;;;;;;;0.90;0.30;;;;;;;;;;10458499;28;20644;-73
2022/07/17 13:37:50;;;;;;;4.13;0.60;;;;;;;;;;10453182;28;20248;-74
2022/07/17 13:42:52;;;;;;;2.50;0.40;;;;;;;;;;10445940;28;20186;-73
2022/07/17 13:47:54;;;;;;;1.63;0.40;;;;;;;;;;10447487;28;20206;-72
2022/07/17 13:52:55;;;;;;;4.32;0.47;;;;;;;;;;10444166;28;20686;-74
2022/07/17 13:57:56;;;;;;;1.02;0.50;;;;;;;;;;10443013;28;20171;-73
2022/07/17 14:02:58;;;;;;;2.25;0.52;;;;;;;;;;10440827;28;20207;-73
2022/07/17 14:07:59;;;;;;;2.15;0.68;;;;;;;;;;10443655;28;20197;-72
2022/07/17 14:13:00;;;;;;;2.30;0.40;;;;;;;;;;10441636;28;20207;-73
2022/07/17 14:18:02;;;;;;;1.45;0.50;;;;;;;;;;10445673;28;20217;-74
2022/07/17 14:23:03;;;;;;;3.03;0.65;;;;;;;;;;10444299;28;20182;-74
2022/07/17 14:28:04;;;;;;;2.30;0.47;;;;;;;;;;10440966;28;20194;-74
2022/07/17 14:33:05;;;;;;;1.65;0.40;;;;;;;;;;10441464;28;20230;-73
2022/07/17 14:38:07;;;;;;;1.98;0.50;;;;;;;;;;10441451;28;20559;-74
2022/07/17 14:43:08;;;;;;;4.20;0.60;;;;;;;;;;10453049;28;20179;-73
2022/07/17 14:48:09;;;;;;;1.25;0.50;;;;;;;;;;10443660;28;20207;-72
2022/07/17 14:53:10;;;;;;;0.55;0.50;;;;;;;;;;10441827;28;20202;-73
2022/07/17 14:58:11;;;;;;;2.35;0.40;;;;;;;;;;10440938;28;20179;-73
2022/07/17 15:03:12;;;;;;;1.98;0.50;;;;;;;;;;10441651;28;20210;-75
2022/07/17 15:08:13;;;;;;;2.75;0.52;;;;;;;;;;10453984;28;20190;-74
2022/07/17 15:13:15;;;;;;;1.33;0.40;;;;;;;;;;10443080;28;20201;-74
2022/07/17 15:18:16;;;;;;;0.73;0.50;;;;;;;;;;10447686;28;20313;-74
2022/07/17 15:23:17;;;;;;;1.45;0.40;;;;;;;;;;10443160;28;20179;-74
2022/07/17 15:28:18;;;;;;;3.13;0.70;;;;;;;;;;10442551;28;20233;-73
2022/07/17 15:33:20;;;;;;;1.42;0.50;;;;;;;;;;10441811;28;20234;-73
2022/07/17 15:38:21;;;;;;;1.52;0.50;;;;;;;;;;10439948;28;20253;-73
2022/07/17 15:43:22;;;;;;;0.90;0.50;;;;;;;;;;10438419;28;20313;-73
2022/07/17 15:48:23;;;;;;;1.08;0.90;;;;;;;;;;10441080;28;20214;-73
2022/07/17 15:53:24;;;;;;;1.85;0.50;;;;;;;;;;10444411;28;20216;-73
2022/07/17 15:58:25;;;;;;;0.98;0.47;;;;;;;;;;10447001;28;20183;-73
2022/07/17 16:03:26;;;;;;;2.05;0.50;;;;;;;;;;10446515;28;20207;-72
2022/07/17 16:08:27;;;;;;;2.20;0.50;;;;;;;;;;10446902;28;20720;-72
2022/07/17 16:13:28;;;;;;;0.77;0.40;;;;;;;;;;10448238;28;20294;-73
2022/07/17 16:18:30;;;;;;;0.50;0.40;;;;;;;;;;10447861;28;20290;-73
2022/07/17 16:23:31;;;;;;;3.13;0.75;;;;;;;;;;10446324;28;20179;-73
2022/07/17 16:28:32;;;;;;;2.10;0.40;;;;;;;;;;10445692;28;20562;-71
2022/07/17 16:33:33;;;;;;;1.13;0.43;;;;;;;;;;10446936;28;20234;-73
2022/07/17 16:38:34;;;;;;;1.55;0.50;;;;;;;;;;10451267;28;20189;-73
2022/07/17 16:43:35;;;;;;;2.00;1.00;;;;;;;;;;10450343;28;20178;-73
2022/07/17 16:48:37;;;;;;;0.30;0.30;;;;;;;;;;10439630;28;20206;-73
2022/07/17 16:53:38;;;;;;;2.25;0.55;;;;;;;;;;10444686;28;20206;-73
2022/07/17 16:58:39;;;;;;;0.63;0.50;;;;;;;;;;10457700;28;20317;-74
2022/07/17 17:03:40;;;;;;;0.60;0.40;;;;;;;;;;10458094;28;20218;-73
2022/07/17 17:08:42;;;;;;;1.77;0.50;;;;;;;;;;10445065;28;20183;-74
2022/07/17 17:13:43;;;;;;;0.93;0.60;;;;;;;;;;10442083;28;20214;-73
2022/07/17 17:18:44;;;;;;;1.80;0.50;;;;;;;;;;10443355;28;20751;-73
2022/07/17 17:23:45;;;;;;;3.13;0.98;;;;;;;;;;10444088;28;20195;-73
2022/07/17 17:28:47;;;;;;;1.63;1.35;;;;;;;;;;10444254;28;20237;-73
2022/07/17 17:33:48;;;;;;;1.33;0.40;;;;;;;;;;10453063;28;20690;-72
2022/07/17 17:38:49;;;;;;;1.60;0.68;;;;;;;;;;10444208;28;20182;-72
2022/07/17 17:43:50;;;;;;;0.93;0.60;;;;;;;;;;10444121;28;20671;-72
2022/07/17 17:48:51;;;;;;;0.52;0.50;;;;;;;;;;10445290;28;20580;-73
2022/07/17 17:53:52;;;;;;;2.80;0.50;;;;;;;;;;10445958;28;20322;-73
2022/07/17 17:58:53;;;;;;;1.48;0.50;;;;;;;;;;10443113;28;20179;-74
2022/07/17 18:03:54;;;;;;;0.70;0.40;;;;;;;;;;10443264;28;20594;-74
2022/07/17 18:08:55;;;;;;;1.13;0.60;;;;;;;;;;10453497;28;20747;-74
2022/07/17 18:13:57;;;;;;;0.70;0.68;;;;;;;;;;10441243;28;20203;-75
2022/07/17 18:18:58;;;;;;;2.53;0.40;;;;;;;;;;10442551;28;20205;-75
2022/07/17 18:23:59;;;;;;;0.75;0.75;;;;;;;;;;10436100;28;20287;-74
2022/07/17 18:29:00;;;;;;;2.60;0.70;;;;;;;;;;10440828;28;20198;-75
2022/07/17 18:34:01;;;;;;;4.25;0.80;;;;;;;;;;10441786;28;20815;-75
2022/07/17 18:39:03;;;;;;;1.58;0.70;;;;;;;;;;10441464;28;20213;-75
2022/07/17 18:44:04;;;;;;;2.95;0.50;;;;;;;;;;10442122;28;20651;-74
2022/07/17 18:49:05;;;;;;;0.85;0.50;;;;;;;;;;10442817;28;20681;-75
2022/07/17 18:54:06;;;;;;;2.85;0.60;;;;;;;;;;10439779;28;20698;-75
2022/07/17 18:59:07;;;;;;;6.07;0.52;;;;;;;;;;10440344;28;20182;-75
2022/07/17 19:04:08;;;;;;;2.92;0.70;;;;;;;;;;10437975;28;20647;-74
2022/07/17 19:09:09;;;;;;;8.23;1.92;;;;;;;;;;10439699;28;20718;-75
2022/07/17 19:14:10;;;;;;;11.88;1.20;;;;;;;;;;10439899;28;20215;-75
2022/07/17 19:19:11;;;;;;;19.40;1.13;;;;;;;;;;10439649;28;20206;-75
2022/07/17 19:24:12;;;;;;;11.48;2.35;;;;;;;;;;10439185;28;20647;-75
2022/07/17 19:29:13;;;;;;;16.33;3.72;;;;;;;;;;10440435;28;20236;-74
2022/07/17 19:34:14;;;;;;;11.70;1.50;;;;;;;;;;10442056;28;20300;-75
2022/07/17 19:39:15;;;;;;;14.10;1.23;;;;;;;;;;10438702;28;20179;-74
2022/07/17 19:44:16;;;;;;;27.65;1.50;;;;;;;;;;10440798;28;20171;-75
2022/07/17 19:49:17;;;;;;;14.95;1.55;;;;;;;;;;10441978;28;20565;-75
2022/07/17 19:54:18;;;;;;;13.30;1.10;;;;;;;;;;10439817;28;20242;-75
2022/07/17 19:59:21;;;;;;;9.60;1.67;;;;;;;;;;10441018;28;20270;-74
2022/07/17 20:04:22;;;;;;;8.98;1.02;;;;;;;;;;10422985;28;20621;-75
2022/07/17 20:09:23;;;;;;;11.52;1.60;;;;;;;;;;10439670;28;20560;-75
2022/07/17 20:14:24;;;;;;;7.45;0.90;;;;;;;;;;10437958;28;20701;-74
2022/07/17 20:19:25;;;;;;;6.43;1.00;;;;;;;;;;10436478;28;20598;-73
2022/07/17 20:24:26;;;;;;;1.92;0.68;;;;;;;;;;10440566;28;20179;-74
2022/07/17 20:29:27;;;;;;;2.40;1.08;;;;;;;;;;10453156;28;20218;-73
2022/07/17 20:34:28;;;;;;;4.47;1.25;;;;;;;;;;10437880;28;20246;-74
2022/07/17 20:39:29;;;;;;;5.93;1.10;;;;;;;;;;10431029;28;20280;-73
2022/07/17 20:44:30;;;;;;;1.80;0.88;;;;;;;;;;10445961;28;21097;-73
2022/07/17 20:49:31;;;;;;;1.40;0.60;;;;;;;;;;10444630;28;20195;-74
2022/07/17 20:54:32;;;;;;;1.08;0.70;;;;;;;;;;10446174;28;20257;-73
2022/07/17 20:59:33;;;;;;;4.45;0.90;;;;;;;;;;10445778;28;20277;-73
2022/07/17 21:04:35;;;;;;;2.47;0.98;;;;;;;;;;10444795;28;20242;-74
2022/07/17 21:09:36;;;;;;;1.85;0.88;;;;;;;;;;10444435;28;20178;-74
2022/07/17 21:14:37;;;;;;;6.45;0.68;;;;;;;;;;10444544;28;20582;-74
2022/07/17 21:19:38;;;;;;;3.13;0.70;;;;;;;;;;10443270;28;20203;-74
2022/07/17 21:24:39;;;;;;;2.22;0.80;;;;;;;;;;10443071;28;20214;-74
2022/07/17 21:29:40;;;;;;;3.45;0.88;;;;;;;;;;10444850;28;20223;-74
2022/07/17 21:34:41;;;;;;;1.92;0.80;;;;;;;;;;10445365;28;20298;-74
2022/07/17 21:39:42;;;;;;;1.98;0.70;;;;;;;;;;10443942;28;20221;-74
2022/07/17 21:44:43;;;;;;;1.50;0.70;;;;;;;;;;10445061;28;20203;-74
2022/07/17 21:49:44;;;;;;;3.03;1.23;;;;;;;;;;10444449;28;20206;-74
2022/07/17 21:54:45;;;;;;;3.30;0.93;;;;;;;;;;10448867;28;20178;-75
2022/07/17 21:59:46;;;;;;;3.75;0.80;;;;;;;;;;10449902;28;20317;-74
2022/07/17 22:04:48;;;;;;;0.60;0.43;;;;;;;;;;10429111;28;20746;-74
2022/07/17 22:09:49;;;;;;;2.28;0.50;;;;;;;;;;10439634;28;20237;-75
2022/07/17 22:14:50;;;;;;;0.50;0.50;;;;;;;;;;10443302;28;20186;-73
2022/07/17 22:19:52;;;;;;;1.70;0.55;;;;;;;;;;10440203;28;20194;-74
2022/07/17 22:24:53;;;;;;;1.95;0.50;;;;;;;;;;10440853;28;20178;-74
2022/07/17 22:29:55;;;;;;;1.73;0.75;;;;;;;;;;10441299;28;20252;-74
2022/07/17 22:34:56;;;;;;;3.30;0.60;;;;;;;;;;10442437;28;20211;-74
2022/07/17 22:39:57;;;;;;;1.10;0.60;;;;;;;;;;10442759;28;20199;-74
2022/07/17 22:44:58;;;;;;;3.30;0.70;;;;;;;;;;10439433;28;20652;-74
2022/07/17 22:49:59;;;;;;;0.98;0.88;;;;;;;;;;10440517;28;20394;-75
2022/07/17 22:55:01;;;;;;;1.67;0.65;;;;;;;;;;10440119;28;20293;-75
2022/07/17 23:00:02;;;;;;;5.43;0.65;;;;;;;;;;10454678;28;20197;-75
2022/07/17 23:05:03;;;;;;;3.78;0.80;;;;;;;;;;10440308;28;20245;-74
2022/07/17 23:10:05;;;;;;;2.53;0.70;;;;;;;;;;10440205;28;20214;-75
2022/07/17 23:15:06;;;;;;;2.60;0.70;;;;;;;;;;10441053;28;20693;-74
2022/07/17 23:20:07;;;;;;;1.65;0.60;;;;;;;;;;10440450;28;20209;-75
2022/07/17 23:25:08;;;;;;;1.75;0.70;;;;;;;;;;10440671;28;20201;-74
2022/07/17 23:30:10;;;;;;;1.88;0.80;;;;;;;;;;10440338;28;20373;-73
2022/07/17 23:35:11;;;;;;;5.78;1.10;;;;;;;;;;10430728;28;20457;-74
2022/07/17 23:40:12;;;;;;;1.95;0.70;;;;;;;;;;10442292;28;20233;-74
2022/07/17 23:45:14;;;;;;;2.67;0.65;;;;;;;;;;10440671;28;20178;-73
2022/07/17 23:50:15;;;;;;;5.35;0.93;;;;;;;;;;10453976;28;20210;-74
2022/07/17 23:55:16;;;;;;;2.20;0.80;;;;;;;;;;10440090;28;20248;-74
